Garcia Miguel — CUGT9 — position and weather

sailwx.info

Track history (hours):
 
Tides and Currents Weather Stations Pressure Air Temp Water Temp Dewpoint Dewpoint Depression Visibility Wind Speed Wind Dir Waves Ship Positions

Garcia Miguel

Last reported at 2015-Aug-27 16:24 UTC. Time now 2015-Aug-31 19:51 UTC.
Position N 39°21' W 009°22'.

Length 20 m.

Type: Fishing. MMSI: 263500286.

Date/timePositionNaut miles runAvg speedWind from/ knotsBaromVisibWave heightAir tempDewpointWater temp
2015-Aug-27 16:24N 39°21' W 009°22'  
2015-Aug-22 08:30N 39°21' W 009°22'0 0.0
2015-Aug-22 07:33N 39°21' W 009°22'7 7.0
2015-Aug-22 06:33N 39°15' W 009°26'8 8.0
2015-Aug-22 05:33N 39°08' W 009°30'8 7.9
2015-Aug-22 04:34N 39°00' W 009°33'8 7.9
2015-Aug-22 03:33N 38°52' W 009°34'8 7.7
2015-Aug-22 02:33N 38°44' W 009°34'8 7.6
2015-Aug-22 01:33N 38°37' W 009°33'8 7.7
2015-Aug-22 00:34N 38°29' W 009°30'7 7.4
2015-Aug-21 23:34N 38°22' W 009°28'7 7.3
2015-Aug-21 22:33N 38°15' W 009°26'7 6.6
2015-Aug-21 21:34N 38°09' W 009°23'6 6.1
2015-Aug-21 20:34N 38°03' W 009°22'6 5.8
2015-Aug-21 19:33N 37°57' W 009°22'1 0.8
2015-Aug-21 18:34N 37°56' W 009°22'1 0.8
2015-Aug-21 17:34N 37°55' W 009°22'1 1.0
2015-Aug-21 16:34N 37°55' W 009°22'1 1.1
2015-Aug-21 15:33N 37°54' W 009°23'2 1.8
2015-Aug-21 14:33N 37°52' W 009°24'0 0.2
2015-Aug-21 13:34N 37°52' W 009°24'2 1.9
2015-Aug-21 12:34N 37°54' W 009°23'1 0.8
2015-Aug-21 11:33N 37°54' W 009°23'6 6.3
2015-Aug-21 10:33N 37°50' W 009°29'7 7.1
2015-Aug-21 09:33N 37°45' W 009°36'7 7.3
2015-Aug-21 08:34N 37°41' W 009°43'7 7.2
2015-Aug-21 07:33N 37°36' W 009°50'7 7.3
2015-Aug-21 06:32N 37°31' W 009°57'7 7.2
2015-Aug-21 05:33N 37°27' W 010°04'7 6.8
2015-Aug-21 04:33N 37°23' W 010°10'6 6.4
2015-Aug-21 03:33N 37°19' W 010°17'7 6.7
2015-Aug-21 02:33N 37°15' W 010°23'7 6.9
2015-Aug-21 01:34N 37°11' W 010°31'7 6.9
2015-Aug-21 00:33N 37°07' W 010°38'7 6.9
2015-Aug-20 23:33N 37°03' W 010°45'8 7.5
2015-Aug-20 22:33N 36°59' W 010°53'7 7.4
2015-Aug-20 21:33N 36°54' W 010°60'32 1.4
2015-Aug-19 23:12N 36°31' W 011°28'  
Track history (hours):
 
Tides and Currents Weather Stations Pressure Air Temp Water Temp Dewpoint Dewpoint Depression Visibility Wind Speed Wind Dir Waves Ship Positions

Garcia Miguel

Last reported at 2015-Aug-27 16:24 UTC. Time now 2015-Aug-31 19:51 UTC.
Position N 39°21' W 009°22'.

Length 20 m.

Type: Fishing. MMSI: 263500286.

Date/timePositionNaut miles runAvg speedWind from/ knotsBaromVisibWave heightAir tempDewpointWater temp
2015-Aug-27 16:24N 39°21' W 009°22'  
2015-Aug-22 08:30N 39°21' W 009°22'0 0.0
2015-Aug-22 07:33N 39°21' W 009°22'7 7.0
2015-Aug-22 06:33N 39°15' W 009°26'8 8.0
2015-Aug-22 05:33N 39°08' W 009°30'8 7.9
2015-Aug-22 04:34N 39°00' W 009°33'8 7.9
2015-Aug-22 03:33N 38°52' W 009°34'8 7.7
2015-Aug-22 02:33N 38°44' W 009°34'8 7.6
2015-Aug-22 01:33N 38°37' W 009°33'8 7.7
2015-Aug-22 00:34N 38°29' W 009°30'7 7.4
2015-Aug-21 23:34N 38°22' W 009°28'7 7.3
2015-Aug-21 22:33N 38°15' W 009°26'7 6.6
2015-Aug-21 21:34N 38°09' W 009°23'6 6.1
2015-Aug-21 20:34N 38°03' W 009°22'6 5.8
2015-Aug-21 19:33N 37°57' W 009°22'1 0.8
2015-Aug-21 18:34N 37°56' W 009°22'1 0.8
2015-Aug-21 17:34N 37°55' W 009°22'1 1.0
2015-Aug-21 16:34N 37°55' W 009°22'1 1.1
2015-Aug-21 15:33N 37°54' W 009°23'2 1.8
2015-Aug-21 14:33N 37°52' W 009°24'0 0.2
2015-Aug-21 13:34N 37°52' W 009°24'2 1.9
2015-Aug-21 12:34N 37°54' W 009°23'1 0.8
2015-Aug-21 11:33N 37°54' W 009°23'6 6.3
2015-Aug-21 10:33N 37°50' W 009°29'7 7.1
2015-Aug-21 09:33N 37°45' W 009°36'7 7.3
2015-Aug-21 08:34N 37°41' W 009°43'7 7.2
2015-Aug-21 07:33N 37°36' W 009°50'7 7.3
2015-Aug-21 06:32N 37°31' W 009°57'7 7.2
2015-Aug-21 05:33N 37°27' W 010°04'7 6.8
2015-Aug-21 04:33N 37°23' W 010°10'6 6.4
2015-Aug-21 03:33N 37°19' W 010°17'7 6.7
2015-Aug-21 02:33N 37°15' W 010°23'7 6.9
2015-Aug-21 01:34N 37°11' W 010°31'7 6.9
2015-Aug-21 00:33N 37°07' W 010°38'7 6.9
2015-Aug-20 23:33N 37°03' W 010°45'8 7.5
2015-Aug-20 22:33N 36°59' W 010°53'7 7.4
2015-Aug-20 21:33N 36°54' W 010°60'32 1.4
2015-Aug-19 23:12N 36°31' W 011°28'  

Dump ship's entire track history